This is the latest recevied weather packets stored in our database for station/object W7TJC. If no packets are shown the sender has not sent any weather packets the latest 10 day(s).
| Time | Temp. | Humidity | Pressure | Rain* | Wind** | Luminosity | Snow |
|---|---|---|---|---|---|---|---|
| 1778019789 | 16.11° C | 78% | 1017.3 hPa | 0 mm | - | 87 W/m² | - |
| 1778019487 | 16.11° C | 77% | 1017.5 hPa | 0 mm | - | 105 W/m² | - |
| 1778019183 | 16.11° C | 78% | 1017.5 hPa | 0 mm | - | 94 W/m² | - |
| 1778018880 | 16.11° C | 77% | 1017.4 hPa | 0 mm | - | 103 W/m² | - |
| 1778018577 | 16.11° C | 77% | 1017.5 hPa | 0 mm | - | 100 W/m² | - |
| 1778018275 | 16.11° C | 78% | 1017.6 hPa | 0 mm | - | 96 W/m² | - |
| 1778017973 | 16.11° C | 78% | 1017.5 hPa | 0 mm | - | 89 W/m² | - |
| 1778017671 | 15.56° C | 78% | 1017.6 hPa | 0 mm | - | 108 W/m² | - |
| 1778017368 | 15.56° C | 78% | 1017.5 hPa | 0 mm | - | 95 W/m² | - |
| 1778017065 | 15.56° C | 78% | 1017.7 hPa | 0 mm | - | 100 W/m² | - |
| 1778016762 | 15.56° C | 79% | 1017.6 hPa | 0 mm | - | 98 W/m² | - |
| 1778016458 | 15.56° C | 78% | 1017.6 hPa | 0 mm | - | 107 W/m² | - |
| 1778016155 | 15° C | 78% | 1017.5 hPa | 0 mm | - | 95 W/m² | - |
| 1778015852 | 15.56° C | 79% | 1017.7 hPa | 0 mm | - | 102 W/m² | - |
| 1778015550 | 15.56° C | 79% | 1017.5 hPa | 0 mm | - | 83 W/m² | - |
| 1778015246 | 15° C | 79% | 1017.6 hPa | 0 mm | - | 96 W/m² | - |
| 1778014943 | 15° C | 79% | 1017.7 hPa | 0 mm | - | 104 W/m² | - |
| 1778014640 | 15° C | 79% | 1017.8 hPa | 0 mm | - | 95 W/m² | - |
| 1778014339 | 15° C | 79% | 1017.7 hPa | 0 mm | - | 86 W/m² | - |
| 1778014034 | 15° C | 79% | 1017.7 hPa | 0 mm | - | 85 W/m² | - |
| 1778013733 | 15° C | 78% | 1017.8 hPa | 0 mm | - | 88 W/m² | - |
| 1778013430 | 15° C | 79% | 1017.9 hPa | 0 mm | - | 84 W/m² | - |
| 1778013126 | 15° C | 80% | 1017.8 hPa | 0 mm | - | 87 W/m² | - |
| 1778012822 | 15° C | 80% | 1017.7 hPa | 0 mm | - | 78 W/m² | - |
| 1778012518 | 14.44° C | 80% | 1017.8 hPa | 0 mm | - | 85 W/m² | - |
* Rain latest hour (hover to see other rain measurements)
** Current wind speed in m/s (hover to see current wind gust speed)